Opa-locka Executive Airport
KOPF : now visible

Airfield :











YOU CAN JOIN US ON...

 
LOGIN :

Register | Disclaimer

   EN    FR    IT 

 









Legend :    VFR   Marginal VFR   IFR   Intensive IFR   Very Intensive IFR
Visi :
Ceiling :
>= 8 km
>= 3000ft
5 to 8 km
1000 to 3000 ft
1500m to 5 km
500 to 1000 ft
800 to 1500m
200 to 500 ft
< 800m
< 200 ft
Symbols :   Thunderstorms  Fog  Heavy snow  Heavy precipitations  Wind > 20 kt






- Airport Elevation : 8 ft


KOPF - Opa-locka Executive

CURRENT METAR :
  • 291653Z 10011KT 10SM SCT029 SCT034 31/23 A3004 RMK AO2 SLP174 T03060233

EXPIRED METARs :
  • 291553Z 12012G18KT 10SM SCT030 31/23 A3005 RMK AO2 SLP175 T03060228
  • 291453Z 11012G16KT 10SM FEW027 29/23 A3004 RMK AO2 SLP174 T02940228 58003

TAF KOPF
Valid from the 29 at 18:00 until the 30 at 18:00 UTC


291723Z 2918/3018 12010KT P6SM VCSH SCT025 BKN035
FM300000 11006KT P6SM FEW030 SCT050 BKN250
FM300600 VRB05KT P6SM FEW050 SCT250
FM301400 12012KT P6SM SCT040 SCT250
KZMA FIR / North America



MET'MAP, your aeronautical weather chart ! - Copyright ORBIFLY December 2007 - Disclaimer

ORBIFLY MET'MAP TEAM :

Programming & Development : Alexandra Zaïnal
Concept & original design : Baudouin d'Aumeries
Assistance for programming : Marc-Olivier Méhu
Technical & hardware support : Manuel Goepfert

Contact : metmap@orbifly.com




SOURCES & CREDITS :

   NOAA       Earth
Advisory